createdAt,value
2023-05-24T00:01:02.591Z,11.90
2023-05-24T00:03:31.057Z,11.70
2023-05-24T00:06:00.726Z,11.70
2023-05-24T00:08:28.856Z,11.60
2023-05-24T00:10:57.131Z,11.70
2023-05-24T00:13:25.184Z,11.60
2023-05-24T00:15:53.618Z,11.70
2023-05-24T00:18:21.670Z,11.50
2023-05-24T00:20:50.194Z,11.50
2023-05-24T00:23:19.684Z,11.50
2023-05-24T00:25:48.112Z,11.40
2023-05-24T00:28:16.430Z,11.40
2023-05-24T00:30:44.845Z,11.50
2023-05-24T00:33:13.116Z,11.30
2023-05-24T00:35:41.347Z,11.30
2023-05-24T00:38:09.711Z,11.20
2023-05-24T00:40:39.168Z,11.10
2023-05-24T00:43:07.130Z,11.10
2023-05-24T00:45:35.298Z,11.10
2023-05-24T00:48:04.197Z,11.10
2023-05-24T00:50:32.522Z,11.10
2023-05-24T00:53:03.605Z,11.00
2023-05-24T00:55:32.061Z,11.00
2023-05-24T00:58:02.310Z,10.90
2023-05-24T01:00:31.643Z,10.80
2023-05-24T01:03:01.258Z,10.70
2023-05-24T01:05:29.414Z,10.80
2023-05-24T01:08:09.939Z,10.80
2023-05-24T01:10:52.348Z,10.90
2023-05-24T01:13:28.115Z,10.80
2023-05-24T01:16:02.770Z,10.90
2023-05-24T01:18:35.046Z,10.90
2023-05-24T01:21:17.892Z,10.80
2023-05-24T01:23:51.447Z,10.80
2023-05-24T01:26:27.257Z,10.70
2023-05-24T01:28:57.415Z,10.70
2023-05-24T01:31:25.660Z,10.70
2023-05-24T01:33:53.861Z,10.60
2023-05-24T01:36:22.345Z,10.60
2023-05-24T01:38:51.995Z,10.60
2023-05-24T01:41:41.350Z,10.60
2023-05-24T01:44:20.149Z,10.80
2023-05-24T01:46:52.345Z,10.50
2023-05-24T01:49:24.439Z,10.40
2023-05-24T01:51:57.839Z,10.40
2023-05-24T01:54:28.001Z,10.30
2023-05-24T01:56:58.678Z,10.40
2023-05-24T01:59:31.193Z,10.30
2023-05-24T02:01:59.409Z,10.40
2023-05-24T02:04:28.109Z,10.50
2023-05-24T02:06:56.163Z,10.50
2023-05-24T02:09:24.663Z,10.50
2023-05-24T02:11:52.713Z,10.50
2023-05-24T02:14:20.986Z,10.60
2023-05-24T02:16:50.933Z,10.60
2023-05-24T02:19:19.179Z,10.60
2023-05-24T02:21:47.225Z,10.60
2023-05-24T02:24:15.300Z,10.70
2023-05-24T02:26:43.511Z,10.70
2023-05-24T02:29:11.600Z,10.60
2023-05-24T02:31:39.762Z,10.40
2023-05-24T02:34:09.382Z,10.50
2023-05-24T02:36:37.581Z,10.50
2023-05-24T02:39:06.229Z,10.50
2023-05-24T02:41:34.330Z,10.50
2023-05-24T02:44:02.337Z,10.40
2023-05-24T02:46:30.506Z,10.40
2023-05-24T02:48:58.698Z,10.40
2023-05-24T02:51:28.159Z,10.30
2023-05-24T02:53:56.268Z,10.20
2023-05-24T02:56:24.326Z,10.20
2023-05-24T02:58:54.343Z,10.20
2023-05-24T03:01:22.863Z,10.20
2023-05-24T03:03:51.102Z,10.20
2023-05-24T03:06:19.199Z,10.20
2023-05-24T03:08:49.789Z,10.20
2023-05-24T03:11:22.133Z,10.10
2023-05-24T03:13:50.638Z,10.30
2023-05-24T03:16:19.979Z,10.20
2023-05-24T03:18:50.629Z,10.20
2023-05-24T03:21:20.976Z,10.30
2023-05-24T03:23:51.049Z,10.30
2023-05-24T03:26:20.693Z,10.20
2023-05-24T03:28:50.720Z,10.20
2023-05-24T03:31:20.942Z,10.20
2023-05-24T03:33:49.075Z,10.20
2023-05-24T03:36:17.038Z,10.20
2023-05-24T03:38:45.296Z,10.30
2023-05-24T03:41:14.679Z,10.20
2023-05-24T03:43:42.817Z,10.20
2023-05-24T03:46:11.174Z,10.20
2023-05-24T03:48:39.408Z,10.20
2023-05-24T03:51:09.304Z,10.20
2023-05-24T03:53:37.386Z,10.30
2023-05-24T03:56:05.632Z,10.20
2023-05-24T03:58:35.997Z,10.20
2023-05-24T04:01:04.095Z,10.20
2023-05-24T04:03:34.278Z,10.20
2023-05-24T04:06:02.683Z,10.20
2023-05-24T04:08:31.514Z,10.30
2023-05-24T04:11:00.003Z,10.30
2023-05-24T04:13:28.486Z,10.50
2023-05-24T04:15:58.010Z,10.30
2023-05-24T04:18:26.258Z,10.50
2023-05-24T04:20:54.483Z,10.30
2023-05-24T04:23:22.600Z,10.40
2023-05-24T04:25:51.122Z,10.40
2023-05-24T04:28:22.219Z,10.50
2023-05-24T04:30:50.363Z,10.50
2023-05-24T04:33:20.543Z,10.70
2023-05-24T04:35:48.524Z,10.80
2023-05-24T04:38:16.965Z,10.90
2023-05-24T04:40:45.488Z,11.20
2023-05-24T04:43:14.680Z,11.10
2023-05-24T04:45:43.049Z,11.40
2023-05-24T04:48:11.304Z,11.40
2023-05-24T04:50:41.200Z,11.60
2023-05-24T04:53:09.593Z,11.80
2023-05-24T04:55:37.672Z,12.00
2023-05-24T04:58:05.757Z,12.00
2023-05-24T05:00:33.956Z,12.10
2023-05-24T05:03:03.928Z,12.10
2023-05-24T05:05:32.205Z,12.20
2023-05-24T05:08:02.134Z,12.30
2023-05-24T05:10:30.474Z,12.40
2023-05-24T05:12:58.773Z,12.40
2023-05-24T05:15:26.841Z,12.70
2023-05-24T05:17:55.415Z,12.60
2023-05-24T05:20:24.195Z,12.60
2023-05-24T05:22:52.167Z,12.70
2023-05-24T05:25:22.160Z,12.80
2023-05-24T05:27:50.558Z,13.00
2023-05-24T05:30:18.701Z,13.10
2023-05-24T05:32:47.450Z,13.10
2023-05-24T05:35:15.640Z,13.20
2023-05-24T05:37:43.758Z,13.20
2023-05-24T05:40:12.844Z,13.30
2023-05-24T05:42:42.485Z,13.30
2023-05-24T05:45:11.141Z,13.20
2023-05-24T05:47:39.669Z,13.20
2023-05-24T05:50:08.864Z,13.20
2023-05-24T05:52:37.288Z,13.20
2023-05-24T05:55:06.246Z,13.30
2023-05-24T05:57:35.593Z,13.20
2023-05-24T06:00:05.892Z,13.20
2023-05-24T06:02:34.400Z,13.30
2023-05-24T06:05:03.278Z,13.40
2023-05-24T06:07:32.112Z,13.50
2023-05-24T06:10:00.191Z,13.50
2023-05-24T06:12:28.396Z,13.50
2023-05-24T06:14:57.615Z,13.50
2023-05-24T06:17:28.054Z,13.50
2023-05-24T06:19:56.264Z,13.50
2023-05-24T06:22:24.529Z,13.60
2023-05-24T06:24:52.849Z,13.60
2023-05-24T06:27:21.399Z,13.80
2023-05-24T06:29:49.577Z,13.70
2023-05-24T06:32:18.227Z,13.80
2023-05-24T06:34:47.850Z,13.80
2023-05-24T06:37:16.212Z,13.90
2023-05-24T06:39:44.256Z,13.90
2023-05-24T06:42:12.468Z,13.90
2023-05-24T06:44:40.490Z,13.90
2023-05-24T06:47:09.388Z,13.80
2023-05-24T06:49:38.393Z,13.90
2023-05-24T06:52:08.992Z,14.00
2023-05-24T06:54:37.750Z,14.00
2023-05-24T06:57:06.433Z,14.10
2023-05-24T06:59:34.586Z,14.10
2023-05-24T07:02:03.938Z,14.10
2023-05-24T07:04:32.408Z,14.10
2023-05-24T07:07:00.621Z,14.20
2023-05-24T07:09:30.174Z,14.40
2023-05-24T07:11:58.448Z,14.40
2023-05-24T07:14:27.518Z,14.50
2023-05-24T07:16:57.570Z,14.70
2023-05-24T07:19:29.898Z,14.70
2023-05-24T07:21:58.134Z,14.70
2023-05-24T07:24:26.333Z,14.70
2023-05-24T07:26:56.945Z,14.70
2023-05-24T07:29:26.311Z,14.80
2023-05-24T07:31:56.795Z,14.80
2023-05-24T07:34:27.629Z,14.80
2023-05-24T07:36:55.747Z,14.80
2023-05-24T07:39:25.243Z,14.70
2023-05-24T07:41:54.942Z,14.80
2023-05-24T07:44:26.219Z,14.90
2023-05-24T07:46:55.779Z,14.90
2023-05-24T07:49:24.165Z,15.00
2023-05-24T07:51:53.109Z,15.10
2023-05-24T07:54:21.548Z,15.20
2023-05-24T07:56:50.451Z,15.50
2023-05-24T07:59:20.140Z,15.50
2023-05-24T08:01:48.368Z,15.50
2023-05-24T08:04:16.912Z,15.50
2023-05-24T08:06:48.008Z,15.50
2023-05-24T08:09:16.771Z,15.50
2023-05-24T08:11:44.954Z,15.50
2023-05-24T08:14:13.247Z,15.60
2023-05-24T08:16:43.024Z,15.60
2023-05-24T08:19:11.082Z,15.60
2023-05-24T08:21:39.460Z,15.60
2023-05-24T08:24:09.424Z,15.70
2023-05-24T08:26:38.188Z,15.70
2023-05-24T08:29:06.330Z,15.80
2023-05-24T08:31:35.593Z,15.70
2023-05-24T08:34:06.660Z,15.70
2023-05-24T08:36:39.013Z,15.70
2023-05-24T08:39:07.324Z,15.80
2023-05-24T08:41:37.964Z,15.80
2023-05-24T08:44:07.895Z,15.90
2023-05-24T08:46:37.159Z,16.00
2023-05-24T08:49:07.648Z,16.00
2023-05-24T08:51:38.719Z,15.90
2023-05-24T08:54:07.807Z,15.90
2023-05-24T08:56:36.411Z,16.00
2023-05-24T08:59:04.467Z,16.10
2023-05-24T09:01:34.775Z,16.20
2023-05-24T09:04:07.396Z,16.30
2023-05-24T09:06:36.170Z,16.50
2023-05-24T09:09:05.930Z,16.30
2023-05-24T09:11:36.841Z,16.50
2023-05-24T09:14:06.203Z,16.60
2023-05-24T09:16:34.438Z,16.70
2023-05-24T09:19:03.541Z,16.90
2023-05-24T09:21:34.001Z,16.70
2023-05-24T09:24:02.331Z,17.00
2023-05-24T09:26:31.142Z,17.30
2023-05-24T09:28:59.330Z,17.40
2023-05-24T09:31:35.038Z,17.50
2023-05-24T09:34:03.203Z,17.70
2023-05-24T09:36:34.896Z,17.60
2023-05-24T09:39:09.603Z,17.60
2023-05-24T09:41:37.782Z,17.90
2023-05-24T09:44:11.829Z,18.10
2023-05-24T09:46:39.993Z,18.10
2023-05-24T09:49:08.611Z,18.10
2023-05-24T09:51:39.910Z,18.20
2023-05-24T09:54:08.311Z,18.50
2023-05-24T09:56:41.578Z,18.60
2023-05-24T09:59:10.377Z,18.50
2023-05-24T10:01:38.942Z,18.50
2023-05-24T10:04:10.014Z,18.60
2023-05-24T10:06:43.151Z,18.60
2023-05-24T10:09:14.390Z,18.60
2023-05-24T10:11:43.342Z,18.90
2023-05-24T10:14:11.963Z,19.30
2023-05-24T10:16:40.451Z,19.20
2023-05-24T10:19:08.732Z,19.40
2023-05-24T10:21:42.910Z,19.50
2023-05-24T10:24:12.477Z,19.70
2023-05-24T10:26:42.613Z,19.60
2023-05-24T10:29:17.958Z,19.40
2023-05-24T10:31:47.275Z,19.50
2023-05-24T10:34:15.848Z,19.50
2023-05-24T10:36:46.035Z,19.60
2023-05-24T10:39:14.045Z,19.80
2023-05-24T10:41:43.413Z,19.70
2023-05-24T10:44:14.974Z,19.80
2023-05-24T10:47:12.238Z,19.70
2023-05-24T10:49:49.210Z,19.60
2023-05-24T10:52:18.974Z,19.70
2023-05-24T10:55:08.151Z,19.70
2023-05-24T10:57:36.981Z,20.00
2023-05-24T11:03:04.283Z,19.80
2023-05-24T11:05:37.029Z,19.80
2023-05-24T11:08:09.559Z,19.70
2023-05-24T11:10:38.470Z,19.70
2023-05-24T11:13:09.694Z,19.70
2023-05-24T11:15:38.334Z,19.70
2023-05-24T11:18:16.400Z,19.80
2023-05-24T11:20:45.955Z,19.60
2023-05-24T11:23:16.496Z,19.80
2023-05-24T11:25:44.824Z,19.90
2023-05-24T11:28:13.796Z,20.10
2023-05-24T11:30:42.285Z,20.10
2023-05-24T11:33:18.811Z,20.10
2023-05-24T11:35:47.265Z,20.20
2023-05-24T11:38:17.882Z,20.10
2023-05-24T11:40:47.266Z,20.10
2023-05-24T11:43:17.011Z,20.00
2023-05-24T11:45:46.866Z,19.70
2023-05-24T11:48:15.250Z,19.90
2023-05-24T11:50:49.854Z,19.80
2023-05-24T11:53:22.644Z,20.30
2023-05-24T11:55:51.502Z,20.30
2023-05-24T11:58:23.995Z,20.30
2023-05-24T12:00:52.856Z,20.30
2023-05-24T12:03:22.014Z,20.30
2023-05-24T12:05:51.434Z,20.20
2023-05-24T12:08:21.253Z,19.90
2023-05-24T12:10:51.743Z,19.50
2023-05-24T12:13:24.588Z,19.70
2023-05-24T12:15:55.828Z,20.10
2023-05-24T12:18:26.396Z,20.20
2023-05-24T12:20:54.610Z,20.20
2023-05-24T12:23:27.794Z,20.20
2023-05-24T12:25:59.916Z,20.00
2023-05-24T12:28:28.674Z,19.90
2023-05-24T12:30:57.198Z,19.90
2023-05-24T12:33:25.977Z,19.80
2023-05-24T12:35:56.456Z,19.70
2023-05-24T12:38:29.443Z,19.60
2023-05-24T12:43:30.601Z,19.60
2023-05-24T12:45:58.746Z,19.90
2023-05-24T12:48:26.874Z,19.70
2023-05-24T12:50:58.048Z,19.60
2023-05-24T12:53:27.879Z,19.30
2023-05-24T12:56:03.510Z,19.20
2023-05-24T12:58:37.779Z,19.10
2023-05-24T13:01:13.918Z,18.90
2023-05-24T13:03:48.018Z,18.90
2023-05-24T13:06:16.491Z,18.90
2023-05-24T13:08:48.080Z,19.00
2023-05-24T13:11:16.600Z,19.10
2023-05-24T13:13:47.600Z,19.50
2023-05-24T13:16:15.921Z,19.40
2023-05-24T13:18:46.357Z,19.30
2023-05-24T13:21:14.807Z,19.30
2023-05-24T13:23:47.431Z,19.30
2023-05-24T13:26:17.891Z,19.70
2023-05-24T13:29:04.858Z,19.70
2023-05-24T13:31:35.106Z,19.60
2023-05-24T13:34:03.647Z,19.30
2023-05-24T13:36:31.759Z,19.30
2023-05-24T13:39:14.055Z,19.30
2023-05-24T13:41:45.440Z,19.50
2023-05-24T13:44:14.027Z,19.80
2023-05-24T13:46:42.587Z,19.70
2023-05-24T13:49:11.992Z,19.40
2023-05-24T13:51:42.413Z,19.30
2023-05-24T13:54:12.714Z,19.30
2023-05-24T13:56:44.457Z,19.40
2023-05-24T13:59:17.316Z,19.50
2023-05-24T14:01:46.644Z,19.60
2023-05-24T14:04:16.986Z,19.40
2023-05-24T14:06:45.315Z,19.10
2023-05-24T14:09:14.420Z,19.00
2023-05-24T14:11:42.812Z,19.20
2023-05-24T14:16:51.836Z,19.20
2023-05-24T14:19:20.153Z,19.00
2023-05-24T14:21:48.728Z,19.00
2023-05-24T14:24:21.062Z,18.90
2023-05-24T14:26:49.423Z,18.70
2023-05-24T14:29:20.545Z,18.80
2023-05-24T14:31:52.826Z,19.10
2023-05-24T14:34:24.221Z,18.90
2023-05-24T14:36:52.562Z,18.80
2023-05-24T14:39:20.896Z,18.80
2023-05-24T14:41:49.092Z,18.70
2023-05-24T14:44:17.970Z,18.80
2023-05-24T14:46:49.612Z,18.70
2023-05-24T14:49:18.362Z,18.90
2023-05-24T14:51:49.422Z,19.10
2023-05-24T14:54:17.995Z,19.30
2023-05-24T14:56:49.055Z,19.40
2023-05-24T14:59:17.201Z,19.20
2023-05-24T15:01:45.415Z,18.90
2023-05-24T15:04:15.154Z,18.50
2023-05-24T15:06:43.460Z,18.40
2023-05-24T15:09:13.135Z,18.30
2023-05-24T15:11:43.502Z,18.30
2023-05-24T15:14:11.712Z,18.20
2023-05-24T15:16:40.053Z,18.00
2023-05-24T15:19:09.218Z,18.10
2023-05-24T15:21:38.913Z,18.10
2023-05-24T15:24:07.781Z,18.30
2023-05-24T15:26:39.242Z,18.40
2023-05-24T15:29:07.535Z,18.30
2023-05-24T15:31:36.485Z,18.30
2023-05-24T15:34:05.582Z,18.20
2023-05-24T15:36:36.768Z,18.10
2023-05-24T15:39:06.615Z,18.10
2023-05-24T15:41:35.302Z,18.10
2023-05-24T15:44:08.605Z,18.00
2023-05-24T15:46:37.841Z,18.10
2023-05-24T15:49:06.280Z,18.30
2023-05-24T15:52:03.023Z,18.30
2023-05-24T15:54:24.079Z,18.30
2023-05-24T15:56:52.457Z,18.20
2023-05-24T15:59:23.585Z,18.10
2023-05-24T16:01:51.990Z,18.00
2023-05-24T16:04:24.638Z,17.90
2023-05-24T16:06:56.522Z,17.80
2023-05-24T16:09:32.823Z,17.60
2023-05-24T16:12:11.054Z,17.70
2023-05-24T16:14:39.363Z,17.50
2023-05-24T16:17:10.529Z,17.50
2023-05-24T16:19:38.636Z,17.50
2023-05-24T16:22:07.973Z,17.40
2023-05-24T16:24:37.681Z,17.60
2023-05-24T16:27:06.873Z,17.70
2023-05-24T16:29:37.040Z,17.80
2023-05-24T16:32:05.846Z,17.90
2023-05-24T16:34:44.831Z,17.60
2023-05-24T16:37:23.146Z,17.60
2023-05-24T16:39:52.889Z,17.50
2023-05-24T16:42:21.361Z,17.30
2023-05-24T16:44:49.672Z,17.20
2023-05-24T16:47:18.089Z,17.00
2023-05-24T16:49:46.408Z,17.20
2023-05-24T16:52:14.553Z,17.20
2023-05-24T16:54:45.963Z,17.20
2023-05-24T16:57:15.892Z,17.30
2023-05-24T16:59:45.543Z,17.40
2023-05-24T17:02:14.181Z,17.30
2023-05-24T17:04:42.665Z,17.30
2023-05-24T17:07:10.865Z,17.30
2023-05-24T17:09:39.397Z,17.20
2023-05-24T17:12:07.866Z,17.20
2023-05-24T17:14:38.291Z,17.20
2023-05-24T17:17:08.966Z,17.30
2023-05-24T17:19:42.025Z,17.30
2023-05-24T17:22:10.279Z,17.50
2023-05-24T17:24:41.793Z,17.70
2023-05-24T17:27:10.257Z,17.90
2023-05-24T17:29:46.907Z,18.20
2023-05-24T17:32:24.436Z,18.30
2023-05-24T17:34:52.830Z,18.10
2023-05-24T17:37:21.103Z,17.90
2023-05-24T17:39:52.346Z,17.70
2023-05-24T17:42:20.525Z,17.70
2023-05-24T17:44:50.148Z,17.70
2023-05-24T17:47:18.464Z,17.50
2023-05-24T17:49:46.607Z,17.40
2023-05-24T17:52:15.142Z,17.40
2023-05-24T17:54:43.334Z,17.30
2023-05-24T17:57:11.517Z,17.20
2023-05-24T17:59:42.628Z,17.10
2023-05-24T18:02:12.367Z,17.20
2023-05-24T18:04:40.980Z,17.00
2023-05-24T18:07:09.362Z,16.90
2023-05-24T18:09:38.901Z,16.90
2023-05-24T18:12:09.636Z,16.80
2023-05-24T18:14:38.191Z,16.90
2023-05-24T18:17:06.427Z,17.00
2023-05-24T18:19:36.520Z,17.10
2023-05-24T18:22:05.061Z,17.20
2023-05-24T18:24:36.169Z,17.30
2023-05-24T18:27:05.199Z,17.30
2023-05-24T18:29:34.897Z,17.40
2023-05-24T18:32:03.547Z,17.60
2023-05-24T18:34:32.251Z,17.60
2023-05-24T18:37:02.888Z,17.50
2023-05-24T18:39:31.587Z,17.40
2023-05-24T18:41:59.898Z,17.30
2023-05-24T18:44:28.065Z,17.30
2023-05-24T18:46:59.510Z,17.20
2023-05-24T18:49:27.817Z,17.20
2023-05-24T18:51:56.249Z,17.20
2023-05-24T18:54:25.772Z,17.00
2023-05-24T18:56:54.095Z,17.00
2023-05-24T18:59:29.005Z,17.00
2023-05-24T19:01:57.245Z,16.90
2023-05-24T19:04:25.875Z,17.00
2023-05-24T19:06:54.473Z,16.80
2023-05-24T19:09:22.686Z,16.70
2023-05-24T19:11:52.546Z,16.60
2023-05-24T19:14:22.269Z,16.50
2023-05-24T19:16:50.435Z,16.40
2023-05-24T19:19:19.764Z,16.10
2023-05-24T19:21:48.093Z,16.10
2023-05-24T19:24:16.387Z,16.10
2023-05-24T19:26:44.504Z,16.00
2023-05-24T19:29:14.331Z,16.00
2023-05-24T19:31:42.425Z,16.00
2023-05-24T19:34:10.842Z,15.90
2023-05-24T19:36:39.128Z,15.80
2023-05-24T19:39:07.581Z,15.70
2023-05-24T19:41:39.171Z,15.60
2023-05-24T19:44:07.433Z,15.60
2023-05-24T19:46:38.200Z,15.40
2023-05-24T19:49:06.544Z,15.40
2023-05-24T19:51:35.023Z,15.30
2023-05-24T19:54:03.292Z,15.30
2023-05-24T19:56:32.114Z,15.20
2023-05-24T19:59:01.616Z,15.20
2023-05-24T20:01:37.097Z,15.20
2023-05-24T20:04:14.026Z,15.10
2023-05-24T20:06:44.423Z,15.10
2023-05-24T20:09:12.877Z,15.00
2023-05-24T20:11:41.258Z,14.90
2023-05-24T20:14:09.562Z,14.90
2023-05-24T20:16:37.736Z,14.80
2023-05-24T20:19:07.671Z,14.80
2023-05-24T20:21:36.721Z,14.70
2023-05-24T20:24:04.920Z,14.70
2023-05-24T20:26:35.051Z,14.60
2023-05-24T20:29:03.974Z,14.60
2023-05-24T20:31:32.158Z,14.50
2023-05-24T20:34:00.296Z,14.50
2023-05-24T20:36:29.839Z,14.50
2023-05-24T20:38:58.253Z,14.50
2023-05-24T20:41:26.631Z,14.30
2023-05-24T20:43:55.161Z,14.50
2023-05-24T20:46:23.675Z,14.30
2023-05-24T20:48:51.993Z,14.20
2023-05-24T20:51:20.344Z,14.20
2023-05-24T20:53:52.160Z,14.30
2023-05-24T20:56:21.425Z,14.20
2023-05-24T20:58:53.012Z,14.20
2023-05-24T21:01:21.842Z,14.10
2023-05-24T21:03:50.083Z,14.00
2023-05-24T21:06:20.710Z,14.00
2023-05-24T21:08:51.116Z,13.80
2023-05-24T21:11:19.194Z,14.00
2023-05-24T21:13:47.338Z,13.90
2023-05-24T21:16:15.498Z,13.90
2023-05-24T21:18:43.470Z,13.90
2023-05-24T21:21:13.236Z,14.00
2023-05-24T21:23:41.334Z,13.90
2023-05-24T21:26:11.108Z,13.90
2023-05-24T21:28:39.326Z,13.80
2023-05-24T21:31:08.315Z,13.80
2023-05-24T21:33:37.626Z,13.80
2023-05-24T21:36:06.018Z,13.90
2023-05-24T21:38:34.259Z,13.80
2023-05-24T21:41:02.321Z,13.70
2023-05-24T21:43:31.818Z,13.70
2023-05-24T21:45:59.904Z,13.70
2023-05-24T21:48:27.902Z,13.70
2023-05-24T21:50:55.969Z,13.80
2023-05-24T21:53:24.124Z,13.70
2023-05-24T21:55:52.234Z,13.70
2023-05-24T21:58:20.303Z,13.70
2023-05-24T22:00:51.004Z,13.80
2023-05-24T22:03:19.148Z,13.80
2023-05-24T22:05:47.495Z,13.80
2023-05-24T22:08:15.605Z,13.70
2023-05-24T22:10:43.654Z,13.70
2023-05-24T22:13:11.608Z,13.80
2023-05-24T22:15:39.998Z,13.60
2023-05-24T22:18:09.784Z,13.60
2023-05-24T22:20:38.165Z,13.60
2023-05-24T22:23:06.771Z,13.60
2023-05-24T22:25:35.191Z,13.40
2023-05-24T22:28:03.260Z,13.50
2023-05-24T22:30:32.158Z,13.50
2023-05-24T22:33:00.212Z,13.40
2023-05-24T22:35:29.647Z,13.40
2023-05-24T22:37:58.214Z,13.40
2023-05-24T22:40:26.881Z,13.40
2023-05-24T22:42:54.898Z,13.50
2023-05-24T22:45:23.076Z,13.40
2023-05-24T22:47:51.104Z,13.30
2023-05-24T22:50:19.230Z,13.30
2023-05-24T22:52:49.156Z,13.30
2023-05-24T22:55:17.386Z,13.20
2023-05-24T22:57:45.394Z,13.20
2023-05-24T23:00:15.594Z,13.20
2023-05-24T23:02:44.204Z,13.20
2023-05-24T23:05:12.376Z,13.20
2023-05-24T23:07:40.492Z,13.10
2023-05-24T23:10:11.156Z,13.10
2023-05-24T23:12:42.413Z,13.10
2023-05-24T23:15:11.664Z,13.20
2023-05-24T23:17:40.149Z,13.20
2023-05-24T23:20:10.605Z,13.10
2023-05-24T23:22:39.010Z,13.10
2023-05-24T23:25:10.080Z,13.10
2023-05-24T23:27:38.277Z,13.10
2023-05-24T23:30:07.901Z,13.10
2023-05-24T23:32:36.465Z,13.10
2023-05-24T23:35:04.763Z,13.10
2023-05-24T23:37:32.946Z,13.00
2023-05-24T23:40:06.332Z,13.10
2023-05-24T23:42:36.563Z,13.00
2023-05-24T23:45:05.068Z,12.90
2023-05-24T23:47:33.177Z,12.90
2023-05-24T23:50:01.255Z,12.90
2023-05-24T23:52:29.301Z,12.90
2023-05-24T23:54:57.342Z,12.90
2023-05-24T23:57:27.067Z,12.90
2023-05-24T23:59:56.694Z,12.90
